Time;durP1;ratioP1;P1;durP2;ratioP2;P2;SDS_P1;SDS_P2;PMS_P1;PMS_P2;Temp;Humidity;BMP_temperature;BMP_pressure;BME280_temperature;BME280_humidity;BME280_pressure;Samples;Min_cycle;Max_cycle;Signal;HPM_P1;HPM_P2
2023/01/29 00:01:49;;;;;;;4.75;4.03;;;20.90;28.90;;;;;;5065846;28;20036;-53
2023/01/29 00:04:15;;;;;;;5.53;4.07;;;20.90;28.90;;;;;;5065007;28;20043;-51
2023/01/29 00:06:41;;;;;;;5.15;3.63;;;20.80;29.40;;;;;;5063239;28;20051;-49
2023/01/29 00:09:07;;;;;;;4.32;3.90;;;20.90;29.00;;;;;;5062858;28;20020;-54
2023/01/29 00:11:34;;;;;;;4.82;3.90;;;20.80;28.90;;;;;;5059841;28;20021;-52
2023/01/29 00:14:00;;;;;;;4.32;3.70;;;20.80;29.10;;;;;;5058719;28;20059;-50
2023/01/29 00:16:26;;;;;;;6.15;4.05;;;20.80;29.10;;;;;;5064336;28;20024;-49
2023/01/29 00:18:51;;;;;;;4.30;3.90;;;20.80;29.00;;;;;;5059367;28;20056;-54
2023/01/29 00:21:20;;;;;;;4.80;3.95;;;20.80;29.00;;;;;;5062093;28;20021;-52
2023/01/29 00:23:46;;;;;;;4.00;3.50;;;20.80;29.00;;;;;;5061555;28;20352;-52
2023/01/29 00:26:13;;;;;;;4.22;3.75;;;20.80;29.00;;;;;;5055387;28;20036;-53
2023/01/29 00:28:42;;;;;;;4.97;4.25;;;20.80;29.00;;;;;;5064571;28;20037;-51
2023/01/29 00:31:09;;;;;;;4.97;4.35;;;20.80;29.00;;;;;;5060584;28;20028;-52
2023/01/29 00:33:35;;;;;;;5.40;4.22;;;20.80;28.90;;;;;;5061176;28;20127;-52
2023/01/29 00:36:05;;;;;;;4.70;4.20;;;20.80;28.90;;;;;;5043356;28;20021;-52
2023/01/29 00:38:32;;;;;;;4.90;4.40;;;20.80;28.90;;;;;;5062331;28;20120;-50
2023/01/29 00:46:32;;;;;;;5.72;4.88;;;20.70;28.90;;;;;;5059130;28;20036;-50
2023/01/29 00:48:57;;;;;;;4.72;4.03;;;20.70;28.90;;;;;;5036018;28;20024;-51
2023/01/29 00:51:23;;;;;;;6.10;4.47;;;20.70;28.90;;;;;;5064438;28;20035;-49
2023/01/29 00:53:49;;;;;;;5.05;4.50;;;20.70;28.90;;;;;;5045669;28;20066;-50
2023/01/29 00:56:15;;;;;;;5.35;4.60;;;20.70;28.80;;;;;;5062639;28;20029;-51
2023/01/29 00:58:40;;;;;;;5.30;4.40;;;20.70;28.80;;;;;;5060859;28;20321;-53
2023/01/29 01:01:06;;;;;;;5.43;4.93;;;20.70;28.80;;;;;;5062266;28;20032;-54
2023/01/29 01:03:34;;;;;;;5.50;4.63;;;20.60;28.80;;;;;;5057619;28;20115;-53
2023/01/29 01:06:05;;;;;;;4.97;4.47;;;20.60;28.80;;;;;;5062539;28;20792;-48
2023/01/29 01:11:16;;;;;;;5.35;4.65;;;20.60;28.80;;;;;;5058945;28;20063;-53
2023/01/29 01:13:42;;;;;;;5.00;4.50;;;20.60;28.80;;;;;;5063261;28;20498;-49
2023/01/29 01:16:13;;;;;;;5.10;4.60;;;20.60;28.80;;;;;;5062835;28;20577;-51
2023/01/29 01:18:39;;;;;;;4.82;4.40;;;20.60;28.80;;;;;;5060935;28;20052;-52
2023/01/29 01:21:05;;;;;;;5.03;4.53;;;20.60;28.80;;;;;;5063398;28;20406;-50
2023/01/29 01:23:31;;;;;;;4.65;4.22;;;20.60;28.80;;;;;;5065827;28;20494;-51
2023/01/29 01:25:57;;;;;;;4.47;4.07;;;20.60;28.80;;;;;;5041325;28;20036;-52
2023/01/29 01:28:23;;;;;;;6.25;5.10;;;20.50;28.80;;;;;;5043354;28;20036;-50
2023/01/29 01:30:49;;;;;;;6.95;4.88;;;20.50;28.80;;;;;;5042415;28;20410;-51
2023/01/29 01:33:15;;;;;;;6.07;5.18;;;20.50;28.70;;;;;;5059183;28;20036;-52
2023/01/29 01:35:41;;;;;;;5.70;5.10;;;20.50;28.70;;;;;;5060899;28;20043;-52
2023/01/29 01:38:08;;;;;;;5.32;4.78;;;20.50;28.70;;;;;;5059137;28;20025;-51
2023/01/29 01:40:34;;;;;;;6.22;4.80;;;20.50;28.70;;;;;;5062091;28;20359;-48
2023/01/29 01:43:00;;;;;;;5.22;4.63;;;20.50;28.70;;;;;;5063065;28;20036;-52
2023/01/29 01:45:32;;;;;;;5.70;4.63;;;20.50;28.70;;;;;;5063531;28;20059;-49
2023/01/29 01:47:57;;;;;;;5.30;4.80;;;20.50;28.80;;;;;;5059089;28;20036;-50
2023/01/29 01:50:37;;;;;;;5.40;4.90;;;20.50;28.70;;;;;;5058741;28;20029;-49
2023/01/29 01:53:07;;;;;;;5.30;4.80;;;20.50;28.70;;;;;;5061456;28;20033;-52
2023/01/29 01:55:36;;;;;;;5.97;5.38;;;20.50;28.70;;;;;;5037727;28;20524;-54
2023/01/29 01:58:09;;;;;;;5.28;4.78;;;20.50;28.70;;;;;;5063971;28;20522;-50
2023/01/29 02:00:36;;;;;;;5.47;4.68;;;20.40;28.70;;;;;;5044752;28;20173;-52
2023/01/29 02:11:37;;;;;;;5.45;4.95;;;20.40;28.70;;;;;;5044258;28;20055;-52
2023/01/29 02:14:03;;;;;;;6.03;5.10;;;20.40;28.70;;;;;;5057204;28;20367;-51
2023/01/29 02:16:29;;;;;;;5.90;5.30;;;20.40;28.70;;;;;;5057395;28;20020;-50
2023/01/29 02:18:55;;;;;;;6.15;5.55;;;20.40;28.70;;;;;;5060010;28;20032;-52
2023/01/29 02:21:58;;;;;;;5.82;5.32;;;20.40;28.70;;;;;;5060727;28;20077;-50
2023/01/29 02:24:47;;;;;;;5.72;5.13;;;20.30;28.60;;;;;;5050831;28;20135;-51
2023/01/29 02:27:46;;;;;;;6.15;5.55;;;20.40;28.60;;;;;;5060303;28;20682;-53
2023/01/29 02:30:22;;;;;;;5.43;4.93;;;20.30;28.60;;;;;;5057742;28;20050;-52
2023/01/29 02:33:00;;;;;;;5.95;5.40;;;20.30;28.60;;;;;;5056596;28;20047;-53
2023/01/29 02:35:33;;;;;;;5.90;5.30;;;20.30;28.60;;;;;;5043483;28;20021;-47
2023/01/29 02:38:18;;;;;;;6.75;5.60;;;20.30;28.60;;;;;;5041352;28;20028;-50
2023/01/29 02:41:04;;;;;;;5.90;5.30;;;20.30;28.60;;;;;;5063691;28;20025;-52
2023/01/29 02:43:53;;;;;;;5.60;5.05;;;20.30;28.60;;;;;;5042627;28;20513;-48
2023/01/29 02:46:38;;;;;;;5.80;5.20;;;20.30;28.60;;;;;;5042358;28;20518;-53
2023/01/29 02:49:20;;;;;;;5.88;5.25;;;20.20;28.70;;;;;;5036193;28;20159;-53
2023/01/29 02:51:57;;;;;;;5.55;5.05;;;20.30;28.80;;;;;;5039523;28;20029;-49
2023/01/29 02:54:33;;;;;;;5.93;5.28;;;20.20;28.70;;;;;;5042005;28;21320;-53
2023/01/29 02:57:22;;;;;;;6.15;5.55;;;20.30;28.70;;;;;;5044687;28;20024;-48
2023/01/29 03:00:09;;;;;;;6.13;5.53;;;20.20;28.70;;;;;;5037968;28;20460;-47
2023/01/29 03:02:43;;;;;;;6.00;5.40;;;20.20;28.70;;;;;;5048321;28;20028;-50
2023/01/29 03:05:17;;;;;;;5.47;4.97;;;20.20;28.70;;;;;;5042524;28;20029;-52
2023/01/29 03:07:51;;;;;;;5.32;4.82;;;20.20;28.70;;;;;;5056826;28;20041;-50
2023/01/29 03:10:51;;;;;;;5.60;5.10;;;20.20;28.70;;;;;;5039807;28;20498;-49
2023/01/29 03:13:28;;;;;;;6.07;5.45;;;20.20;28.70;;;;;;5037841;28;20044;-51
2023/01/29 03:16:06;;;;;;;5.82;5.03;;;20.20;28.70;;;;;;5041645;28;20494;-52
2023/01/29 03:18:49;;;;;;;5.43;4.93;;;20.20;28.70;;;;;;5040640;28;20025;-51
2023/01/29 03:21:50;;;;;;;7.47;5.43;;;20.20;28.70;;;;;;5039788;28;20334;-51
2023/01/29 03:33:25;;;;;;;5.25;4.75;;;20.10;28.70;;;;;;5053801;28;20068;-52
2023/01/29 03:35:59;;;;;;;5.90;5.30;;;20.20;28.70;;;;;;5040553;28;20087;-52
2023/01/29 03:38:28;;;;;;;6.38;5.05;;;20.10;28.70;;;;;;5040640;28;20053;-54
2023/01/29 03:41:13;;;;;;;5.75;4.72;;;20.10;28.80;;;;;;5040564;28;20440;-52
2023/01/29 03:44:05;;;;;;;5.43;4.93;;;20.10;28.80;;;;;;5035341;28;20032;-53
2023/01/29 03:46:55;;;;;;;5.35;4.82;;;20.10;28.80;;;;;;5038948;28;20048;-53
2023/01/29 03:49:32;;;;;;;5.50;4.95;;;20.10;28.70;;;;;;5041516;28;20073;-53
2023/01/29 03:52:12;;;;;;;5.45;4.95;;;20.10;28.70;;;;;;5041891;28;20443;-51
2023/01/29 03:54:56;;;;;;;5.80;5.20;;;20.10;28.70;;;;;;5041374;28;20525;-53
2023/01/29 03:57:22;;;;;;;5.90;5.00;;;20.00;28.70;;;;;;5041065;28;20123;-51
2023/01/29 04:00:01;;;;;;;6.30;4.85;;;20.10;28.70;;;;;;5061792;28;20378;-51
2023/01/29 04:02:51;;;;;;;6.30;5.18;;;20.00;28.70;;;;;;5060048;28;20098;-52
2023/01/29 04:05:21;;;;;;;5.20;4.60;;;20.10;28.70;;;;;;5033765;28;20682;-52
2023/01/29 04:08:09;;;;;;;5.80;5.20;;;20.00;28.70;;;;;;5041618;28;21626;-48
2023/01/29 04:10:39;;;;;;;5.53;4.68;;;20.10;28.70;;;;;;5041852;28;20403;-50
2023/01/29 04:13:09;;;;;;;5.50;5.00;;;20.00;28.70;;;;;;5037256;28;20058;-49
2023/01/29 04:15:52;;;;;;;5.13;4.63;;;20.00;28.80;;;;;;5041997;28;20028;-52
2023/01/29 04:18:24;;;;;;;4.80;4.32;;;20.00;28.80;;;;;;5040612;28;20033;-52
2023/01/29 04:21:06;;;;;;;4.97;4.40;;;20.00;28.80;;;;;;5043632;28;20036;-49
2023/01/29 04:23:32;;;;;;;5.55;4.50;;;20.00;28.80;;;;;;5038438;28;20025;-51
2023/01/29 04:26:26;;;;;;;5.20;4.50;;;20.00;28.80;;;;;;5040843;28;20359;-51
2023/01/29 04:29:07;;;;;;;5.47;4.68;;;20.00;28.80;;;;;;5042352;28;20047;-52
2023/01/29 04:31:59;;;;;;;5.60;4.75;;;20.00;28.80;;;;;;5061875;28;20078;-48
2023/01/29 04:34:28;;;;;;;6.07;4.53;;;20.00;28.80;;;;;;5046839;28;20132;-52
2023/01/29 04:37:09;;;;;;;5.93;4.78;;;20.00;28.80;;;;;;5044514;28;20032;-54
2023/01/29 04:39:50;;;;;;;4.95;4.45;;;20.00;28.80;;;;;;5043809;28;20036;-53
2023/01/29 04:42:43;;;;;;;4.95;4.45;;;20.00;28.80;;;;;;5058432;28;20025;-52
2023/01/29 04:45:23;;;;;;;5.25;4.38;;;19.90;28.80;;;;;;5066580;28;20124;-52
2023/01/29 04:48:05;;;;;;;5.55;4.88;;;19.90;28.80;;;;;;5061611;28;20106;-52
2023/01/29 04:50:39;;;;;;;5.47;4.78;;;19.90;28.80;;;;;;5064960;28;20024;-50
2023/01/29 04:53:27;;;;;;;4.70;4.03;;;19.90;28.80;;;;;;5058332;28;20064;-53
2023/01/29 04:56:36;;;;;;;6.40;4.70;;;19.90;28.80;;;;;;5063075;28;20041;-50
2023/01/29 04:59:12;;;;;;;5.38;4.63;;;19.90;28.80;;;;;;5028570;28;20392;-53
2023/01/29 05:01:38;;;;;;;5.43;4.93;;;19.90;28.80;;;;;;5061152;28;20036;-52
2023/01/29 05:04:11;;;;;;;4.57;4.18;;;19.90;28.80;;;;;;5061480;28;20064;-52
2023/01/29 05:06:38;;;;;;;4.70;4.30;;;19.90;28.80;;;;;;5059861;28;20086;-52
2023/01/29 05:09:05;;;;;;;5.18;4.45;;;19.90;28.80;;;;;;5060511;28;20036;-53
2023/01/29 05:11:33;;;;;;;5.25;4.75;;;19.90;28.80;;;;;;5062065;28;20062;-54
2023/01/29 05:14:03;;;;;;;4.95;4.45;;;19.80;28.80;;;;;;5062653;28;20064;-54
2023/01/29 05:16:40;;;;;;;4.95;4.25;;;19.80;28.80;;;;;;5063829;28;20037;-53
2023/01/29 05:19:13;;;;;;;5.70;4.60;;;19.90;28.80;;;;;;5060338;28;20028;-52
2023/01/29 05:21:42;;;;;;;5.65;4.65;;;19.90;28.80;;;;;;5065094;28;20021;-50
2023/01/29 05:24:21;;;;;;;5.18;4.68;;;19.90;28.80;;;;;;5065378;28;20074;-51
2023/01/29 05:29:35;;;;;;;5.30;4.80;;;19.80;28.80;;;;;;5060628;28;20052;-53
2023/01/29 05:32:02;;;;;;;5.15;4.65;;;19.80;28.80;;;;;;5059943;28;20036;-49
2023/01/29 05:34:28;;;;;;;5.13;4.63;;;19.80;28.80;;;;;;5060785;28;20047;-53
2023/01/29 05:36:54;;;;;;;4.68;4.15;;;19.80;28.80;;;;;;5063504;28;20352;-49
2023/01/29 05:39:19;;;;;;;5.32;4.80;;;19.80;28.80;;;;;;5060456;28;20352;-47
2023/01/29 05:41:45;;;;;;;6.57;4.10;;;19.80;28.90;;;;;;5064690;28;20040;-48
2023/01/29 05:44:11;;;;;;;5.05;4.55;;;19.80;28.90;;;;;;5064143;28;20405;-53
2023/01/29 05:46:38;;;;;;;5.72;4.60;;;19.80;28.90;;;;;;5063190;28;20021;-51
2023/01/29 05:49:04;;;;;;;5.18;4.65;;;19.80;28.90;;;;;;5063231;28;20044;-47
2023/01/29 05:51:30;;;;;;;5.30;4.80;;;19.80;28.90;;;;;;5063432;28;20061;-52
2023/01/29 05:53:56;;;;;;;5.10;4.60;;;19.80;28.90;;;;;;5042177;28;20464;-49
2023/01/29 05:56:22;;;;;;;5.15;4.57;;;19.70;28.80;;;;;;5058636;28;20364;-49
2023/01/29 05:58:47;;;;;;;5.63;5.00;;;19.80;28.90;;;;;;5060130;28;20067;-51
2023/01/29 06:01:16;;;;;;;4.68;4.10;;;19.70;28.90;;;;;;5059221;28;20040;-48
2023/01/29 06:03:43;;;;;;;5.13;4.63;;;19.70;28.90;;;;;;5055566;28;20028;-50
2023/01/29 06:06:08;;;;;;;5.32;4.70;;;19.70;28.90;;;;;;5059071;28;20401;-52
2023/01/29 06:08:34;;;;;;;5.03;4.15;;;19.80;28.90;;;;;;5062242;28;20048;-51
2023/01/29 06:11:00;;;;;;;5.00;4.50;;;19.70;29.00;;;;;;5043633;28;20044;-52
2023/01/29 06:13:26;;;;;;;5.50;4.43;;;19.70;29.00;;;;;;5062357;28;20129;-51
2023/01/29 06:15:52;;;;;;;5.82;4.70;;;19.70;29.00;;;;;;5057431;28;20025;-51
2023/01/29 06:18:18;;;;;;;4.95;4.45;;;19.80;29.00;;;;;;5054007;28;20020;-51
2023/01/29 06:20:44;;;;;;;5.75;4.88;;;19.80;29.00;;;;;;5060673;28;20028;-52
2023/01/29 06:23:09;;;;;;;5.90;4.80;;;19.70;29.00;;;;;;5067152;28;20169;-47
2023/01/29 06:25:35;;;;;;;6.72;5.00;;;19.70;29.00;;;;;;5063276;28;20029;-52
2023/01/29 06:28:01;;;;;;;5.80;5.00;;;19.70;29.00;;;;;;5055422;28;20032;-52
2023/01/29 06:30:27;;;;;;;5.68;4.60;;;19.70;29.00;;;;;;5059889;28;20067;-53
2023/01/29 06:32:57;;;;;;;4.65;4.15;;;19.70;29.00;;;;;;5062173;28;20467;-53
2023/01/29 06:35:24;;;;;;;6.40;5.07;;;19.70;29.00;;;;;;5063231;28;20037;-51
2023/01/29 06:37:50;;;;;;;5.38;4.88;;;19.70;29.00;;;;;;5058706;28;20029;-50
2023/01/29 06:40:16;;;;;;;5.25;4.75;;;19.70;28.90;;;;;;5062824;28;20093;-52
2023/01/29 06:42:42;;;;;;;5.78;4.78;;;19.70;29.00;;;;;;5042864;28;20039;-48
2023/01/29 06:45:08;;;;;;;5.38;4.88;;;19.70;29.00;;;;;;5059960;28;20032;-49
2023/01/29 06:47:34;;;;;;;6.07;4.95;;;19.60;28.90;;;;;;5055675;28;21535;-50
2023/01/29 06:50:00;;;;;;;6.05;5.15;;;19.60;29.00;;;;;;5063024;28;20036;-52
2023/01/29 06:52:27;;;;;;;5.00;4.38;;;19.70;29.00;;;;;;5057886;28;20025;-51
2023/01/29 06:54:56;;;;;;;5.20;4.70;;;19.60;28.90;;;;;;5063222;28;20336;-53
2023/01/29 06:57:22;;;;;;;5.22;4.72;;;19.60;28.90;;;;;;5044274;28;20037;-52
2023/01/29 06:59:48;;;;;;;5.13;4.38;;;19.60;28.90;;;;;;5055349;28;20348;-53
2023/01/29 07:02:14;;;;;;;5.35;4.80;;;19.60;28.90;;;;;;5058193;28;20043;-50
2023/01/29 07:04:43;;;;;;;6.13;5.22;;;19.60;28.90;;;;;;5057367;28;20519;-49
2023/01/29 07:07:12;;;;;;;5.78;4.80;;;19.60;28.90;;;;;;5060754;28;20106;-47
2023/01/29 07:09:41;;;;;;;5.65;4.57;;;19.60;28.90;;;;;;5057367;28;20016;-49
2023/01/29 07:12:08;;;;;;;5.25;4.75;;;19.60;29.00;;;;;;5065481;28;20452;-53
2023/01/29 07:14:36;;;;;;;5.07;4.57;;;19.60;29.00;;;;;;5063015;28;20048;-49
2023/01/29 07:17:02;;;;;;;5.22;4.65;;;19.60;29.00;;;;;;5065912;28;20064;-51
2023/01/29 07:19:27;;;;;;;5.90;5.30;;;19.60;29.00;;;;;;5060388;28;20343;-49
2023/01/29 07:21:55;;;;;;;5.22;4.68;;;19.60;29.00;;;;;;5056012;28;20112;-50
2023/01/29 07:24:21;;;;;;;5.57;4.93;;;19.60;29.00;;;;;;5060897;28;20054;-53
2023/01/29 07:26:47;;;;;;;5.10;4.53;;;19.60;29.00;;;;;;5059256;28;20104;-51
2023/01/29 07:29:13;;;;;;;5.93;4.75;;;19.60;29.00;;;;;;5060713;28;20112;-51
2023/01/29 07:31:38;;;;;;;4.93;4.43;;;19.60;29.00;;;;;;5061792;28;20028;-48
2023/01/29 07:34:04;;;;;;;5.60;4.50;;;19.50;29.00;;;;;;5056187;28;20102;-50
2023/01/29 07:36:30;;;;;;;6.13;4.60;;;19.50;29.00;;;;;;5060073;28;20078;-50
2023/01/29 07:38:56;;;;;;;5.13;4.57;;;19.50;29.00;;;;;;5060354;28;20334;-48
2023/01/29 07:41:22;;;;;;;5.40;4.90;;;19.50;29.00;;;;;;5061153;28;20054;-51
2023/01/29 07:43:47;;;;;;;6.70;5.47;;;19.50;29.00;;;;;;5060535;28;20030;-50
2023/01/29 07:46:13;;;;;;;5.25;4.70;;;19.50;29.00;;;;;;5062108;28;20519;-52
2023/01/29 07:48:39;;;;;;;5.32;4.38;;;19.50;29.00;;;;;;5059369;28;20103;-52
2023/01/29 07:51:05;;;;;;;5.88;4.80;;;19.50;29.00;;;;;;5055418;28;20079;-51
2023/01/29 07:53:31;;;;;;;5.53;4.55;;;19.50;29.00;;;;;;5052170;28;20029;-52
2023/01/29 07:55:57;;;;;;;5.28;4.60;;;19.50;29.00;;;;;;5057009;28;20148;-51
2023/01/29 07:58:23;;;;;;;4.80;4.30;;;19.50;29.00;;;;;;5052475;28;20438;-51
2023/01/29 08:00:49;;;;;;;5.45;4.82;;;19.50;29.00;;;;;;5052515;28;20372;-50
2023/01/29 08:03:17;;;;;;;6.18;4.90;;;19.50;29.10;;;;;;5056389;28;20029;-50
2023/01/29 08:05:44;;;;;;;5.38;4.75;;;19.50;29.10;;;;;;5054042;28;20071;-53
2023/01/29 08:08:10;;;;;;;5.07;4.47;;;19.50;29.10;;;;;;5057913;28;20028;-50
2023/01/29 08:10:37;;;;;;;5.05;4.40;;;19.50;29.10;;;;;;5058247;28;20037;-50
2023/01/29 08:13:03;;;;;;;5.57;4.57;;;19.40;29.10;;;;;;5055797;28;20052;-51
2023/01/29 08:15:30;;;;;;;5.43;4.63;;;19.50;29.20;;;;;;5059948;28;20345;-51
2023/01/29 08:17:55;;;;;;;5.28;4.20;;;19.40;29.20;;;;;;5058127;28;20029;-50
2023/01/29 08:20:22;;;;;;;4.60;4.13;;;19.50;29.20;;;;;;5056413;28;20033;-50
2023/01/29 08:22:48;;;;;;;5.03;4.47;;;19.40;29.20;;;;;;5069314;28;20024;-50
2023/01/29 08:25:14;;;;;;;6.60;4.80;;;19.40;29.20;;;;;;5048033;28;20435;-51
2023/01/29 08:27:41;;;;;;;5.68;4.50;;;19.40;29.20;;;;;;5064903;28;20021;-49
2023/01/29 08:30:08;;;;;;;6.20;5.05;;;19.40;29.20;;;;;;5064054;28;20025;-46
2023/01/29 08:32:34;;;;;;;4.78;4.28;;;19.40;29.10;;;;;;5066988;28;20082;-48
2023/01/29 08:35:00;;;;;;;6.63;4.57;;;19.40;29.10;;;;;;5069435;28;20036;-47
2023/01/29 08:37:26;;;;;;;5.97;4.72;;;19.40;29.10;;;;;;5066096;28;20025;-49
2023/01/29 08:39:52;;;;;;;5.47;4.47;;;19.40;29.10;;;;;;5063471;28;20024;-51
2023/01/29 08:42:18;;;;;;;5.70;4.55;;;19.40;29.10;;;;;;5065794;28;20360;-51
2023/01/29 08:44:43;;;;;;;6.13;4.60;;;19.40;29.60;;;;;;5065943;28;20032;-51
2023/01/29 08:47:09;;;;;;;6.35;4.95;;;19.40;29.10;;;;;;5066092;28;20128;-49
2023/01/29 08:49:35;;;;;;;5.43;4.65;;;19.40;29.10;;;;;;5066303;28;20028;-50
2023/01/29 08:52:01;;;;;;;5.82;4.32;;;19.40;29.10;;;;;;5064087;28;20028;-48
2023/01/29 08:54:27;;;;;;;6.97;4.43;;;19.40;29.20;;;;;;5067997;28;20043;-48
2023/01/29 08:56:53;;;;;;;6.28;4.22;;;19.40;29.30;;;;;;5064827;28;20024;-50
2023/01/29 08:59:18;;;;;;;7.00;3.70;;;19.40;29.50;;;;;;5066595;28;20036;-51
2023/01/29 09:01:44;;;;;;;6.72;3.95;;;19.50;29.60;;;;;;5048435;28;20036;-48
2023/01/29 09:04:10;;;;;;;6.55;4.00;;;19.40;29.80;;;;;;5065618;28;20452;-49
2023/01/29 09:06:36;;;;;;;5.78;3.47;;;19.50;29.90;;;;;;5063956;28;20025;-49
2023/01/29 09:09:02;;;;;;;4.95;3.50;;;19.40;30.00;;;;;;5046604;28;20021;-49
2023/01/29 09:11:27;;;;;;;5.22;3.47;;;19.50;30.10;;;;;;5065669;28;20525;-45
2023/01/29 09:13:53;;;;;;;5.60;3.28;;;19.50;30.20;;;;;;5066302;28;20067;-51
2023/01/29 09:16:19;;;;;;;5.55;3.05;;;19.60;30.40;;;;;;5045267;28;20025;-49
2023/01/29 09:18:45;;;;;;;4.97;3.30;;;19.60;30.30;;;;;;5064284;28;20024;-51
2023/01/29 09:21:11;;;;;;;4.63;3.13;;;19.70;30.30;;;;;;5064167;28;20021;-49
2023/01/29 09:23:37;;;;;;;8.35;3.50;;;19.70;30.20;;;;;;5065413;28;20054;-47
2023/01/29 09:26:03;;;;;;;5.30;2.85;;;19.80;30.20;;;;;;5047455;28;20056;-46
2023/01/29 09:28:29;;;;;;;4.53;3.10;;;19.90;30.20;;;;;;5061278;28;20074;-49
2023/01/29 09:30:55;;;;;;;4.40;3.10;;;19.90;30.10;;;;;;5065994;28;20025;-54
2023/01/29 09:33:21;;;;;;;5.20;3.20;;;20.00;30.00;;;;;;5063151;28;20356;-45
2023/01/29 09:35:47;;;;;;;4.90;3.10;;;20.10;30.10;;;;;;5062882;28;20052;-52
2023/01/29 09:38:13;;;;;;;5.10;2.50;;;20.20;30.10;;;;;;5060639;28;20456;-52
2023/01/29 09:40:52;;;;;;;2.40;1.83;;;20.20;30.00;;;;;;5039718;28;20024;-47
2023/01/29 09:43:21;;;;;;;5.10;1.88;;;20.20;29.90;;;;;;5055605;28;20044;-49
2023/01/29 09:45:59;;;;;;;5.10;2.00;;;20.20;29.80;;;;;;5041231;28;20471;-49
2023/01/29 09:48:29;;;;;;;3.17;1.95;;;20.30;29.70;;;;;;5047555;28;20059;-50
2023/01/29 09:50:58;;;;;;;4.40;2.25;;;20.30;29.60;;;;;;5060696;28;20082;-52
2023/01/29 09:53:39;;;;;;;4.15;2.67;;;20.40;29.60;;;;;;5061501;28;20444;-50
2023/01/29 09:56:27;;;;;;;2.72;2.10;;;20.40;29.50;;;;;;5076754;28;20042;-51
2023/01/29 09:58:57;;;;;;;4.40;2.22;;;20.50;29.60;;;;;;5064404;28;20064;-53
2023/01/29 10:01:46;;;;;;;3.40;2.22;;;20.60;29.40;;;;;;5062999;28;20037;-49
2023/01/29 10:04:36;;;;;;;3.08;2.30;;;20.60;29.30;;;;;;5056920;28;20029;-53
2023/01/29 10:07:30;;;;;;;2.72;2.15;;;20.70;29.30;;;;;;5064196;28;20029;-54
2023/01/29 10:10:13;;;;;;;2.63;2.33;;;20.70;29.30;;;;;;5064404;28;20021;-46
2023/01/29 10:13:00;;;;;;;5.72;2.58;;;20.80;29.30;;;;;;5064036;28;20052;-48
2023/01/29 10:15:49;;;;;;;5.35;3.28;;;20.80;29.40;;;;;;5064060;28;20037;-49
2023/01/29 10:18:33;;;;;;;6.97;3.70;;;20.90;29.90;;;;;;5041727;28;20036;-50
2023/01/29 10:21:38;;;;;;;5.00;3.60;;;21.00;30.60;;;;;;5062959;28;20048;-51
2023/01/29 10:24:06;;;;;;;7.80;4.18;;;21.00;30.90;;;;;;4970798;28;20287;-49
2023/01/29 10:26:34;;;;;;;7.07;3.65;;;21.10;31.40;;;;;;4969746;28;20150;-48
2023/01/29 10:29:04;;;;;;;6.25;3.50;;;21.20;32.00;;;;;;5018722;28;20045;-48
2023/01/29 10:31:35;;;;;;;6.93;3.67;;;21.20;32.20;;;;;;5062948;28;20029;-49
2023/01/29 10:34:21;;;;;;;7.05;3.83;;;21.20;32.20;;;;;;5062897;28;20055;-46
2023/01/29 10:36:48;;;;;;;6.60;3.92;;;21.30;32.40;;;;;;5062276;28;20351;-51
2023/01/29 10:39:23;;;;;;;6.93;4.20;;;21.30;32.50;;;;;;5061110;28;20021;-49
2023/01/29 10:42:17;;;;;;;8.43;4.40;;;21.30;32.70;;;;;;5062236;28;20039;-54
2023/01/29 10:44:49;;;;;;;6.63;4.30;;;21.40;33.10;;;;;;5063434;28;20094;-51
2023/01/29 10:47:36;;;;;;;5.93;3.28;;;21.40;33.00;;;;;;5063469;28;20029;-46
2023/01/29 10:50:47;;;;;;;7.97;3.58;;;21.40;32.40;;;;;;5044391;28;20116;-50
2023/01/29 10:53:28;;;;;;;8.38;3.60;;;21.40;32.40;;;;;;4963913;28;20035;-51
2023/01/29 10:56:31;;;;;;;6.05;4.05;;;21.40;32.80;;;;;;5059136;28;20055;-47
2023/01/29 10:59:04;;;;;;;8.15;4.57;;;21.40;33.00;;;;;;5045230;28;20036;-48
2023/01/29 11:01:30;;;;;;;7.20;4.10;;;21.40;33.20;;;;;;5063545;28;20024;-52
2023/01/29 11:04:02;;;;;;;7.38;3.83;;;21.40;33.20;;;;;;5063252;28;20075;-52
2023/01/29 11:06:30;;;;;;;5.68;3.80;;;21.40;33.20;;;;;;5062729;28;20472;-49
2023/01/29 11:08:59;;;;;;;5.78;3.25;;;21.40;33.10;;;;;;5062618;28;20032;-47
2023/01/29 11:11:49;;;;;;;5.38;3.17;;;21.40;33.10;;;;;;5060924;28;20086;-48
2023/01/29 11:14:23;;;;;;;4.88;3.35;;;21.50;33.20;;;;;;5019144;28;20042;-47
2023/01/29 11:16:49;;;;;;;5.72;3.25;;;21.40;33.00;;;;;;5015575;28;20054;-49
2023/01/29 11:19:15;;;;;;;4.85;3.30;;;21.40;32.70;;;;;;5012759;28;20116;-53
2023/01/29 11:22:00;;;;;;;5.10;3.00;;;21.40;32.40;;;;;;5017264;28;20378;-52
2023/01/29 11:24:26;;;;;;;;;;;21.40;32.00;;;;;;5015029;28;20492;-51
2023/01/29 11:26:58;;;;;;;5.47;3.00;;;21.40;31.80;;;;;;5013713;28;20337;-51
2023/01/29 11:29:32;;;;;;;4.97;3.33;;;21.40;31.50;;;;;;5016839;28;20051;-52
2023/01/29 11:32:00;;;;;;;3.95;3.13;;;21.40;31.30;;;;;;5011326;28;20026;-50
2023/01/29 11:34:31;;;;;;;4.93;3.03;;;21.40;31.00;;;;;;5017806;28;20171;-51
2023/01/29 11:37:01;;;;;;;5.97;2.78;;;21.40;30.90;;;;;;5012097;28;20030;-53
2023/01/29 11:39:29;;;;;;;4.10;3.08;;;21.30;30.70;;;;;;5013497;28;20116;-52
2023/01/29 11:42:03;;;;;;;4.00;3.00;;;21.30;30.60;;;;;;5020276;28;20037;-49
2023/01/29 11:44:41;;;;;;;3.92;2.45;;;21.30;30.50;;;;;;5019804;28;20472;-52
2023/01/29 11:47:14;;;;;;;3.65;2.70;;;21.30;30.50;;;;;;5020955;28;20038;-51
2023/01/29 11:50:00;;;;;;;3.28;2.50;;;21.30;30.70;;;;;;5027526;28;20166;-51
2023/01/29 11:52:39;;;;;;;5.45;2.83;;;21.30;30.90;;;;;;5028500;28;20404;-47
2023/01/29 11:55:15;;;;;;;4.25;2.75;;;21.30;31.00;;;;;;5027133;28;20069;-50
2023/01/29 11:57:45;;;;;;;4.57;2.50;;;21.30;31.00;;;;;;5024544;28;20029;-47
2023/01/29 12:00:23;;;;;;;4.32;2.80;;;21.20;30.90;;;;;;5027698;28;20026;-46
2023/01/29 12:02:55;;;;;;;5.40;2.55;;;21.30;30.90;;;;;;5029172;28;20029;-45
2023/01/29 12:05:26;;;;;;;6.25;3.00;;;21.30;30.90;;;;;;5027479;28;20147;-47
2023/01/29 12:08:00;;;;;;;3.28;2.67;;;21.30;30.80;;;;;;5022716;28;20033;-49
2023/01/29 12:10:40;;;;;;;4.50;2.88;;;21.30;30.80;;;;;;5024894;28;20386;-45
2023/01/29 12:13:11;;;;;;;3.88;2.70;;;21.30;30.90;;;;;;5033898;28;20045;-49
2023/01/29 12:15:40;;;;;;;4.47;2.60;;;21.30;31.10;;;;;;5041779;28;20033;-51
2023/01/29 12:18:21;;;;;;;3.88;2.40;;;21.30;31.10;;;;;;5039995;28;20116;-48
2023/01/29 12:21:00;;;;;;;4.03;2.35;;;21.40;31.20;;;;;;5036073;28;20044;-54
2023/01/29 12:23:47;;;;;;;4.07;2.30;;;21.50;31.20;;;;;;5034600;28;20037;-47
2023/01/29 12:26:37;;;;;;;2.90;2.13;;;21.50;31.00;;;;;;5037325;28;20039;-45
2023/01/29 12:29:12;;;;;;;3.15;2.38;;;21.70;30.90;;;;;;5043748;28;20035;-51
2023/01/29 12:31:48;;;;;;;3.55;2.22;;;21.80;30.80;;;;;;5035551;28;20029;-47
2023/01/29 12:34:30;;;;;;;3.92;2.13;;;21.90;30.70;;;;;;5040399;28;20041;-54
2023/01/29 12:37:12;;;;;;;3.10;2.30;;;22.00;30.60;;;;;;5035147;28;20038;-50
2023/01/29 12:39:38;;;;;;;2.28;1.80;;;22.10;31.10;;;;;;5038950;28;20033;-50
2023/01/29 12:42:21;;;;;;;4.05;2.00;;;22.20;30.40;;;;;;5041414;28;20025;-48
2023/01/29 12:45:07;;;;;;;2.28;1.75;;;22.30;30.50;;;;;;5036407;28;20029;-49
2023/01/29 12:47:42;;;;;;;3.78;2.20;;;22.40;30.50;;;;;;5035579;28;20022;-49
2023/01/29 12:50:33;;;;;;;3.00;2.00;;;22.50;30.50;;;;;;5035531;28;20033;-47
2023/01/29 12:53:17;;;;;;;3.20;2.08;;;22.50;30.30;;;;;;5037673;28;20029;-52
2023/01/29 12:55:47;;;;;;;3.60;2.00;;;22.70;30.20;;;;;;5034481;28;20048;-52
2023/01/29 12:58:24;;;;;;;3.22;2.00;;;22.70;30.00;;;;;;5040502;28;20093;-51
2023/01/29 13:00:55;;;;;;;2.97;1.73;;;22.80;30.50;;;;;;5038235;28;20053;-47
2023/01/29 13:03:52;;;;;;;3.25;1.83;;;22.90;29.90;;;;;;5042182;28;20024;-46
2023/01/29 13:06:47;;;;;;;2.47;1.92;;;23.00;29.80;;;;;;5037437;28;20041;-49
2023/01/29 13:09:24;;;;;;;2.70;2.20;;;23.00;29.60;;;;;;5035683;28;20111;-48
2023/01/29 13:11:58;;;;;;;3.20;2.20;;;23.10;29.50;;;;;;5035484;28;20464;-54
2023/01/29 13:14:27;;;;;;;2.53;1.90;;;23.20;29.40;;;;;;5056871;28;20162;-53
2023/01/29 13:17:27;;;;;;;3.90;2.10;;;23.20;29.30;;;;;;5053049;28;20037;-49
2023/01/29 13:19:57;;;;;;;3.55;2.10;;;23.30;29.30;;;;;;5059980;28;20078;-52
2023/01/29 13:22:30;;;;;;;2.22;1.60;;;23.30;29.20;;;;;;5057890;28;20024;-52
2023/01/29 13:24:57;;;;;;;2.92;1.85;;;23.40;29.10;;;;;;5056201;28;20032;-53
2023/01/29 13:27:29;;;;;;;2.83;1.90;;;23.40;29.00;;;;;;5058678;28;20036;-48
2023/01/29 13:29:56;;;;;;;3.75;2.08;;;23.50;29.00;;;;;;5060617;28;20024;-49
2023/01/29 13:32:28;;;;;;;2.45;1.83;;;23.50;29.00;;;;;;5057348;28;20029;-47
2023/01/29 13:34:58;;;;;;;2.35;1.63;;;23.50;28.90;;;;;;5059176;28;20470;-51
2023/01/29 13:37:45;;;;;;;2.88;1.85;;;23.60;28.80;;;;;;5053402;28;20025;-53
2023/01/29 13:40:25;;;;;;;2.28;1.80;;;23.60;28.70;;;;;;5056604;28;20028;-53
2023/01/29 13:42:53;;;;;;;2.22;1.95;;;23.70;28.70;;;;;;5056049;28;20037;-50
2023/01/29 13:45:20;;;;;;;2.63;1.90;;;23.70;28.60;;;;;;5059763;28;20024;-48